Time;durP1;ratioP1;P1;durP2;ratioP2;P2;SDS_P1;SDS_P2;PMS_P1;PMS_P2;Temp;Humidity;BMP_temperature;BMP_pressure;BME280_temperature;BME280_humidity;BME280_pressure;Samples;Min_cycle;Max_cycle;Signal;HPM_P1;HPM_P2
2023/09/05 00:00:16;;;;;;;8.05;4.63;;;;;;;20.68;67.11;101871.47;5092960;28;20477;-60
2023/09/05 00:02:44;;;;;;;8.77;4.60;;;;;;;20.61;67.46;101864.44;5093399;28;20080;-61
2023/09/05 00:05:11;;;;;;;5.95;4.35;;;;;;;20.50;67.61;101867.25;5093219;28;20043;-60
2023/09/05 00:07:39;;;;;;;6.45;4.82;;;;;;;20.39;68.29;101862.94;5093134;28;20031;-60
2023/09/05 00:10:06;;;;;;;10.05;5.13;;;;;;;20.34;68.26;101870.13;5092913;28;20047;-60
2023/09/05 00:12:31;;;;;;;7.43;4.85;;;;;;;20.27;68.65;101862.19;5093063;28;20469;-59
2023/09/05 00:14:58;;;;;;;6.88;4.22;;;;;;;20.22;69.24;101865.84;5092796;28;20043;-59
2023/09/05 00:17:23;;;;;;;6.50;4.60;;;;;;;20.16;69.08;101863.22;5092851;28;20098;-60
2023/09/05 00:19:49;;;;;;;7.65;4.47;;;;;;;20.13;69.64;101856.13;5092999;28;20052;-60
2023/09/05 00:22:15;;;;;;;7.38;4.50;;;;;;;20.02;69.40;101855.34;5093161;28;20032;-60
2023/09/05 00:24:41;;;;;;;8.43;4.40;;;;;;;19.92;69.77;101848.31;5074713;28;20111;-60
2023/09/05 00:27:09;;;;;;;6.80;4.57;;;;;;;19.74;70.66;101861.03;5092845;28;20028;-60
2023/09/05 00:29:35;;;;;;;6.38;4.53;;;;;;;19.60;71.26;101856.69;5092664;28;20055;-60
2023/09/05 00:32:03;;;;;;;7.25;4.55;;;;;;;19.64;71.12;101861.16;5092761;28;20055;-60
2023/09/05 00:34:31;;;;;;;7.10;4.65;;;;;;;19.58;71.10;101859.38;5074719;28;20032;-59
2023/09/05 00:36:58;;;;;;;7.90;4.57;;;;;;;19.52;71.25;101864.78;5093091;28;20028;-59
2023/09/05 00:39:25;;;;;;;10.63;5.13;;;;;;;19.39;72.04;101866.72;5096558;28;20393;-59
2023/09/05 00:41:51;;;;;;;7.10;4.90;;;;;;;19.42;71.88;101860.44;5078460;28;20036;-60
2023/09/05 00:44:17;;;;;;;7.10;5.05;;;;;;;19.42;72.23;101868.47;5096248;28;20046;-60
2023/09/05 00:46:45;;;;;;;8.48;4.88;;;;;;;19.33;72.24;101865.91;5096199;28;20040;-60
2023/09/05 00:49:12;;;;;;;7.28;4.43;;;;;;;19.32;71.74;101867.69;5096768;28;20115;-62
2023/09/05 00:51:39;;;;;;;7.13;4.82;;;;;;;19.37;71.52;101868.53;5096282;28;20085;-60
2023/09/05 00:54:06;;;;;;;7.68;4.90;;;;;;;19.29;72.42;101867.72;5078096;28;20028;-61
2023/09/05 00:56:32;;;;;;;6.82;5.40;;;;;;;19.27;72.76;101878.44;5096337;28;20099;-60
2023/09/05 00:58:59;;;;;;;8.73;5.80;;;;;;;19.25;72.66;101879.34;5077872;28;20044;-60
2023/09/05 01:01:25;;;;;;;8.23;5.32;;;;;;;19.23;73.01;101876.69;5096004;28;20496;-61
2023/09/05 01:03:54;;;;;;;8.40;5.28;;;;;;;19.12;73.15;101872.31;5096063;28;20028;-60
2023/09/05 01:06:31;;;;;;;9.40;5.30;;;;;;;19.05;73.72;101870.59;5096102;28;20103;-61
2023/09/05 01:09:21;;;;;;;9.40;5.40;;;;;;;19.03;73.39;101870.59;5096049;28;20537;-61
2023/09/05 01:11:47;;;;;;;7.97;5.30;;;;;;;18.98;73.83;101861.72;5081488;28;20090;-60
2023/09/05 01:14:14;;;;;;;9.15;4.90;;;;;;;18.89;73.35;101868.03;5095539;28;20042;-61
2023/09/05 01:16:43;;;;;;;12.50;5.00;;;;;;;18.83;73.83;101868.06;5095934;28;20439;-61
2023/09/05 01:19:12;;;;;;;6.88;4.65;;;;;;;18.76;74.20;101861.88;5096344;28;20047;-60
2023/09/05 01:21:43;;;;;;;7.82;5.47;;;;;;;18.86;74.26;101862.69;5095438;28;20432;-60
2023/09/05 01:24:17;;;;;;;7.60;5.22;;;;;;;18.79;74.39;101854.72;5095361;28;20107;-60
2023/09/05 01:26:43;;;;;;;7.85;5.70;;;;;;;18.74;74.41;101865.44;5095465;28;20020;-60
2023/09/05 01:29:15;;;;;;;9.52;5.70;;;;;;;18.75;74.43;101862.75;5094948;28;20025;-60
2023/09/05 01:31:41;;;;;;;9.77;5.78;;;;;;;18.72;74.55;101868.16;5095654;28;20032;-60
2023/09/05 01:34:07;;;;;;;11.38;5.88;;;;;;;18.79;74.10;101878.81;5095607;28;20028;-59
2023/09/05 01:36:32;;;;;;;11.48;5.65;;;;;;;18.79;74.02;101874.34;5095329;28;20035;-60
2023/09/05 01:38:58;;;;;;;7.80;5.45;;;;;;;18.81;73.81;101872.56;5095120;28;20028;-60
2023/09/05 01:41:23;;;;;;;7.95;5.28;;;;;;;18.89;73.38;101872.50;5095046;28;20509;-60
2023/09/05 01:43:48;;;;;;;9.10;5.50;;;;;;;18.86;73.26;101875.19;5060023;28;20024;-60
2023/09/05 01:46:14;;;;;;;8.32;5.80;;;;;;;18.83;73.42;101867.19;5094691;28;20482;-61
2023/09/05 01:48:39;;;;;;;8.80;5.32;;;;;;;18.87;72.67;101866.25;5094471;28;20073;-59
2023/09/05 01:51:05;;;;;;;11.02;5.32;;;;;;;18.96;72.56;101861.72;5095577;28;20044;-59
2023/09/05 01:53:30;;;;;;;8.05;5.50;;;;;;;18.93;72.84;101863.56;5095589;28;20538;-60
2023/09/05 01:55:57;;;;;;;8.30;5.18;;;;;;;18.89;72.31;101870.72;5095581;28;20473;-59
2023/09/05 01:58:23;;;;;;;8.60;5.70;;;;;;;18.80;73.08;101862.75;5095357;28;20103;-59
2023/09/05 02:00:49;;;;;;;9.68;5.40;;;;;;;18.77;72.80;101871.69;5094725;28;20095;-60
2023/09/05 02:03:14;;;;;;;7.18;5.22;;;;;;;18.70;73.22;101874.41;5094824;28;20021;-60
2023/09/05 02:05:39;;;;;;;11.98;5.32;;;;;;;18.62;73.02;101868.16;5094480;28;20419;-60
2023/09/05 02:08:05;;;;;;;10.82;4.97;;;;;;;18.58;73.83;101871.75;5094707;28;20115;-60
2023/09/05 02:10:31;;;;;;;8.35;5.30;;;;;;;18.54;74.09;101876.25;5094599;28;20028;-60
2023/09/05 02:12:56;;;;;;;7.22;5.25;;;;;;;18.50;74.08;101874.50;5094830;28;20402;-59
2023/09/05 02:15:22;;;;;;;9.10;5.32;;;;;;;18.45;74.40;101876.28;5094667;28;20036;-59
2023/09/05 02:17:47;;;;;;;9.35;5.35;;;;;;;18.39;74.60;101874.56;5095140;28;20024;-59
2023/09/05 02:20:13;;;;;;;7.35;4.90;;;;;;;18.40;73.97;101870.09;5094837;28;20055;-59
2023/09/05 02:22:41;;;;;;;11.15;4.97;;;;;;;18.37;74.96;101876.38;5094877;28;20056;-60
2023/09/05 02:25:07;;;;;;;10.05;5.20;;;;;;;18.31;74.76;101871.03;5095019;28;20020;-60
2023/09/05 02:27:35;;;;;;;8.70;4.97;;;;;;;18.29;75.07;101867.47;5094833;28;20043;-60
2023/09/05 02:30:04;;;;;;;7.78;4.90;;;;;;;18.26;74.90;101871.03;5077139;28;20028;-61
2023/09/05 02:32:30;;;;;;;10.80;5.55;;;;;;;18.24;75.11;101864.81;5094667;28;20036;-59
2023/09/05 02:34:56;;;;;;;8.60;5.20;;;;;;;18.30;75.39;101868.38;5094589;28;20031;-60
2023/09/05 02:37:21;;;;;;;8.40;5.10;;;;;;;18.29;75.76;101866.59;5094606;28;20405;-60
2023/09/05 02:39:47;;;;;;;8.00;4.82;;;;;;;18.26;75.51;101865.69;5094574;28;20024;-61
2023/09/05 02:42:12;;;;;;;10.68;5.40;;;;;;;18.29;76.08;101862.13;5094488;28;20035;-60
2023/09/05 02:44:38;;;;;;;9.00;4.85;;;;;;;18.26;76.06;101865.69;5076167;28;20028;-60
2023/09/05 02:47:03;;;;;;;8.23;5.45;;;;;;;18.23;75.47;101873.72;5094224;28;20160;-60
2023/09/05 02:49:30;;;;;;;7.50;5.07;;;;;;;18.21;76.19;101869.28;5094302;28;20043;-61
2023/09/05 02:51:57;;;;;;;9.43;4.90;;;;;;;18.19;76.23;101871.06;5094579;28;20028;-60
2023/09/05 02:54:22;;;;;;;8.27;4.80;;;;;;;18.20;75.75;101855.03;5094431;28;20025;-59
2023/09/05 02:56:47;;;;;;;8.45;5.55;;;;;;;18.16;75.94;101855.94;5094496;28;20024;-60
2023/09/05 02:59:13;;;;;;;7.53;5.30;;;;;;;18.20;75.99;101847.00;5094245;28;20509;-60
2023/09/05 03:01:39;;;;;;;9.27;5.32;;;;;;;18.14;76.14;101835.44;5093233;28;20082;-60
2023/09/05 03:04:04;;;;;;;7.97;4.85;;;;;;;18.22;75.99;101838.97;5094208;28;20044;-61
2023/09/05 03:06:30;;;;;;;8.13;5.07;;;;;;;18.15;76.56;101835.41;5094056;28;20547;-61
2023/09/05 03:08:55;;;;;;;10.10;5.28;;;;;;;18.13;76.67;101850.59;5094262;28;20527;-61
2023/09/05 03:11:21;;;;;;;9.45;5.28;;;;;;;18.04;76.79;101845.28;5094047;28;20474;-60
2023/09/05 03:13:47;;;;;;;8.10;4.82;;;;;;;18.06;76.58;101862.22;5093901;28;20040;-60
2023/09/05 03:16:12;;;;;;;8.35;4.70;;;;;;;18.05;77.34;101846.19;5094095;28;20123;-60
2023/09/05 03:18:38;;;;;;;7.78;5.20;;;;;;;18.06;76.48;101854.19;5093880;28;20452;-60
2023/09/05 03:21:04;;;;;;;9.07;4.95;;;;;;;18.07;76.71;101850.59;5093892;28;20458;-61
2023/09/05 03:23:30;;;;;;;7.25;5.07;;;;;;;18.10;76.07;101839.00;5093715;28;20234;-60
2023/09/05 03:25:56;;;;;;;8.10;4.97;;;;;;;18.17;75.74;101843.44;5093645;28;20022;-59
2023/09/05 03:28:22;;;;;;;7.63;4.93;;;;;;;18.18;75.91;101837.19;5093716;28;20032;-59
2023/09/05 03:30:47;;;;;;;7.32;5.13;;;;;;;18.18;75.73;101838.09;5093418;28;20020;-59
2023/09/05 03:33:13;;;;;;;7.85;5.15;;;;;;;18.16;75.77;101844.34;5093800;28;20025;-59
2023/09/05 03:35:38;;;;;;;6.78;5.00;;;;;;;18.09;75.76;101831.91;5093811;28;20024;-59
2023/09/05 03:38:07;;;;;;;7.90;5.47;;;;;;;17.99;76.14;101828.38;5093710;28;20032;-59
2023/09/05 03:40:33;;;;;;;7.78;4.90;;;;;;;18.09;76.03;101842.59;5093580;28;20028;-59
2023/09/05 03:42:58;;;;;;;7.60;5.18;;;;;;;18.09;75.91;101835.47;5093561;28;20397;-59
2023/09/05 03:45:24;;;;;;;8.63;5.00;;;;;;;18.08;75.86;101839.03;5093255;28;20035;-59
2023/09/05 03:47:49;;;;;;;8.30;5.10;;;;;;;17.98;75.78;101846.19;5092990;28;20124;-59
2023/09/05 03:50:17;;;;;;;7.93;4.80;;;;;;;17.99;75.87;101847.97;5093641;28;20036;-60
2023/09/05 03:52:43;;;;;;;6.68;4.45;;;;;;;17.99;75.85;101839.06;5093263;28;20038;-59
2023/09/05 03:55:09;;;;;;;6.25;4.78;;;;;;;17.97;76.00;101836.38;5093631;28;20380;-60
2023/09/05 03:57:34;;;;;;;6.80;4.55;;;;;;;18.00;75.71;101841.72;5093180;28;20481;-60
2023/09/05 04:00:00;;;;;;;6.60;4.53;;;;;;;17.96;75.65;101834.63;5093148;28;20032;-59
2023/09/05 04:02:25;;;;;;;9.02;4.72;;;;;;;17.98;76.64;101838.16;5075138;28;20055;-60
2023/09/05 04:04:55;;;;;;;8.85;4.80;;;;;;;17.89;76.07;101838.19;5093075;28;20113;-61
2023/09/05 04:07:22;;;;;;;6.78;5.05;;;;;;;17.81;76.61;101839.13;5093036;28;20131;-61
2023/09/05 04:09:47;;;;;;;6.88;4.65;;;;;;;17.82;76.54;101844.47;5093087;28;20031;-59
2023/09/05 04:12:13;;;;;;;9.20;5.10;;;;;;;17.80;76.57;101832.88;5092853;28;20028;-60
2023/09/05 04:14:39;;;;;;;8.45;5.20;;;;;;;17.78;76.30;101829.34;5092930;28;20107;-60
2023/09/05 04:17:04;;;;;;;9.02;4.80;;;;;;;17.82;76.20;101827.56;5093077;28;20028;-61
2023/09/05 04:19:30;;;;;;;8.10;4.90;;;;;;;17.88;75.86;101828.41;5092835;28;20023;-59
2023/09/05 04:21:55;;;;;;;7.30;4.60;;;;;;;17.93;75.86;101823.03;5093179;28;20028;-60
2023/09/05 04:24:21;;;;;;;8.13;4.22;;;;;;;17.98;75.70;101822.09;5092909;28;20123;-62
2023/09/05 04:26:46;;;;;;;7.28;4.82;;;;;;;17.94;75.58;101823.06;5092868;28;20028;-60
2023/09/05 04:29:12;;;;;;;9.10;4.70;;;;;;;17.92;75.35;101814.13;5092723;28;20028;-59
2023/09/05 04:31:37;;;;;;;6.25;4.40;;;;;;;17.90;75.57;101820.38;5092767;28;20060;-60
2023/09/05 04:34:02;;;;;;;6.45;4.80;;;;;;;17.83;75.85;101818.63;5092801;28;20080;-59
2023/09/05 04:36:28;;;;;;;7.00;4.65;;;;;;;17.78;75.88;101818.66;5092938;28;20020;-59
2023/09/05 04:38:53;;;;;;;9.13;4.45;;;;;;;17.74;76.17;101819.56;5093089;28;20028;-60
2023/09/05 04:41:20;;;;;;;7.45;4.22;;;;;;;17.73;76.30;101823.97;5074636;28;20390;-59
2023/09/05 04:43:46;;;;;;;8.30;4.63;;;;;;;17.73;75.90;101820.41;5092923;28;20498;-60
2023/09/05 04:46:12;;;;;;;7.78;4.45;;;;;;;17.71;75.97;101814.16;5092448;28;20024;-58
2023/09/05 04:48:38;;;;;;;8.63;4.40;;;;;;;17.73;75.81;101815.06;5092743;28;20158;-59
2023/09/05 04:51:04;;;;;;;6.50;4.40;;;;;;;17.74;75.93;101814.22;5092577;28;20078;-59
2023/09/05 04:53:32;;;;;;;6.70;4.32;;;;;;;17.69;75.74;101814.19;5092473;28;20047;-60
2023/09/05 04:56:00;;;;;;;7.47;4.20;;;;;;;17.69;75.90;101807.97;5092454;28;20180;-60
2023/09/05 04:58:29;;;;;;;5.97;4.40;;;;;;;17.65;75.79;101811.53;5074276;28;20036;-60
2023/09/05 05:01:02;;;;;;;6.97;4.28;;;;;;;17.66;75.68;101806.16;5091961;28;20538;-60
2023/09/05 05:03:32;;;;;;;8.93;4.63;;;;;;;17.67;75.80;101807.94;5092044;28;20024;-60
2023/09/05 05:05:58;;;;;;;6.70;3.95;;;;;;;17.69;75.64;101805.28;5092252;28;20484;-61
2023/09/05 05:08:24;;;;;;;6.70;4.05;;;;;;;17.65;75.56;101803.50;5092013;28;20103;-60
2023/09/05 05:10:49;;;;;;;9.38;4.30;;;;;;;17.71;75.18;101811.50;5092228;28;20121;-61
2023/09/05 05:13:14;;;;;;;6.95;3.97;;;;;;;17.73;75.54;101813.28;5091897;28;20031;-59
2023/09/05 05:15:40;;;;;;;6.88;4.00;;;;;;;17.74;75.64;101817.75;5091767;28;20166;-59
2023/09/05 05:18:05;;;;;;;7.28;4.10;;;;;;;17.74;75.18;101819.56;5091735;28;20342;-60
2023/09/05 05:20:31;;;;;;;8.02;4.00;;;;;;;17.71;75.21;101819.53;5091955;28;20032;-61
2023/09/05 05:22:56;;;;;;;6.93;3.83;;;;;;;17.68;75.24;101819.53;5091842;28;20028;-60
2023/09/05 05:25:22;;;;;;;6.05;4.13;;;;;;;17.71;75.35;101828.44;5094816;28;20032;-60
2023/09/05 05:27:47;;;;;;;5.00;3.75;;;;;;;17.79;75.22;101822.22;5095310;28;20024;-60
2023/09/05 05:30:13;;;;;;;6.68;4.07;;;;;;;17.91;74.73;101830.19;5095373;28;20453;-59
2023/09/05 05:32:38;;;;;;;5.90;3.92;;;;;;;18.02;74.11;101828.34;5095577;28;20039;-60
2023/09/05 05:35:04;;;;;;;9.57;4.05;;;;;;;18.13;73.88;101831.00;5095154;28;20123;-60
2023/09/05 05:37:30;;;;;;;6.78;3.97;;;;;;;18.28;73.54;101828.22;5095207;28;20028;-60
2023/09/05 05:39:55;;;;;;;5.88;3.63;;;;;;;18.34;73.27;101843.38;5095507;28;20039;-61
2023/09/05 05:42:22;;;;;;;6.70;4.07;;;;;;;18.41;72.86;101843.31;5076969;28;20323;-59
2023/09/05 05:44:47;;;;;;;7.13;4.20;;;;;;;18.55;72.15;101840.56;5094931;28;20033;-60
2023/09/05 05:47:13;;;;;;;5.50;3.92;;;;;;;18.68;72.25;101841.38;5094892;28;20547;-60
2023/09/05 05:49:38;;;;;;;7.97;4.20;;;;;;;18.82;71.03;101828.81;5094951;28;20546;-60
2023/09/05 05:52:04;;;;;;;9.80;3.80;;;;;;;18.90;71.11;101824.28;5094786;28;20032;-60
2023/09/05 05:54:29;;;;;;;6.88;3.88;;;;;;;18.96;70.76;101826.00;5095001;28;20032;-59
2023/09/05 05:56:55;;;;;;;6.05;4.00;;;;;;;19.06;70.78;101827.72;5094779;28;20037;-59
2023/09/05 05:59:24;;;;;;;9.32;4.32;;;;;;;19.13;70.29;101824.06;5094597;28;20477;-59
2023/09/05 06:01:52;;;;;;;6.78;4.50;;;;;;;19.24;70.02;101827.56;5094533;28;20478;-60
2023/09/05 06:04:18;;;;;;;8.80;4.20;;;;;;;19.38;69.78;101829.22;5094752;28;20483;-60
2023/09/05 06:06:45;;;;;;;7.50;4.28;;;;;;;19.46;69.10;101836.25;5094695;28;20240;-60
2023/09/05 06:09:11;;;;;;;5.40;4.18;;;;;;;19.60;69.01;101832.53;5076413;28;20470;-60
2023/09/05 06:11:36;;;;;;;6.20;4.20;;;;;;;19.74;68.17;101836.00;5094661;28;20034;-60
2023/09/05 06:14:02;;;;;;;5.75;4.07;;;;;;;19.87;67.83;101834.97;5094532;28;20038;-60
2023/09/05 06:16:28;;;;;;;9.65;4.43;;;;;;;20.00;67.75;101839.28;5094434;28;20024;-60
2023/09/05 06:18:53;;;;;;;9.27;4.32;;;;;;;20.10;67.44;101834.66;5094657;28;20412;-60
2023/09/05 06:21:19;;;;;;;11.25;4.70;;;;;;;20.22;66.56;101829.16;5094828;28;20055;-60
2023/09/05 06:23:44;;;;;;;8.68;4.45;;;;;;;20.38;66.94;101836.97;5094135;28;20074;-59
2023/09/05 06:26:09;;;;;;;8.80;4.68;;;;;;;20.50;66.41;101836.84;5094383;28;20081;-59
2023/09/05 06:28:35;;;;;;;7.20;4.35;;;;;;;20.70;65.20;101840.13;5094312;28;20550;-60
2023/09/05 06:31:01;;;;;;;5.38;4.20;;;;;;;20.83;65.00;101843.50;5075988;28;20032;-61
2023/09/05 06:33:26;;;;;;;7.03;4.40;;;;;;;20.95;64.18;101837.94;5094104;28;20024;-61
2023/09/05 06:35:52;;;;;;;6.68;4.28;;;;;;;21.12;64.61;101831.41;5076035;28;20020;-61
2023/09/05 06:38:18;;;;;;;6.00;4.32;;;;;;;21.27;64.61;101837.38;5094099;28;20024;-60
2023/09/05 06:40:43;;;;;;;10.32;4.10;;;;;;;21.38;63.48;101831.84;5094013;28;20103;-59
2023/09/05 06:43:09;;;;;;;5.32;4.32;;;;;;;21.54;63.54;101829.75;5094131;28;20029;-60
2023/09/05 06:45:36;;;;;;;10.60;4.53;;;;;;;21.65;62.85;101830.44;5093556;28;20401;-60
2023/09/05 06:48:02;;;;;;;7.57;4.50;;;;;;;21.73;62.38;101832.97;5093778;28;20048;-60
2023/09/05 06:50:28;;;;;;;7.93;4.30;;;;;;;21.91;62.02;101832.59;5093739;28;20505;-60
2023/09/05 06:52:53;;;;;;;7.43;4.40;;;;;;;22.04;62.99;101829.66;5093825;28;20020;-60
2023/09/05 06:55:19;;;;;;;10.23;4.38;;;;;;;22.16;62.21;101832.13;5093703;28;20047;-60
2023/09/05 06:57:45;;;;;;;5.60;4.30;;;;;;;22.24;61.21;101832.84;5093646;28;20024;-60
2023/09/05 07:00:12;;;;;;;7.00;4.10;;;;;;;22.38;60.03;101828.03;5093646;28;20123;-61
2023/09/05 07:02:37;;;;;;;9.13;3.92;;;;;;;22.40;59.97;101817.25;5093483;28;20469;-59
2023/09/05 07:05:04;;;;;;;10.88;4.00;;;;;;;22.51;59.41;101815.16;5093322;28;20020;-60
2023/09/05 07:07:30;;;;;;;7.80;4.00;;;;;;;22.57;60.15;101823.13;5093373;28;20039;-59
2023/09/05 07:09:55;;;;;;;6.40;3.78;;;;;;;22.64;58.36;101821.16;5093411;28;20024;-60
2023/09/05 07:12:21;;;;;;;8.07;3.80;;;;;;;22.82;58.42;101809.91;5058553;28;20067;-60
2023/09/05 07:14:48;;;;;;;6.13;3.58;;;;;;;22.91;58.95;101809.75;5093239;28;20028;-59
2023/09/05 07:17:13;;;;;;;4.72;3.70;;;;;;;23.15;58.88;101810.03;5075407;28;20032;-59
2023/09/05 07:19:39;;;;;;;6.85;3.47;;;;;;;23.29;58.37;101812.34;5093518;28;20032;-60
2023/09/05 07:22:04;;;;;;;8.27;3.80;;;;;;;23.55;56.96;101803.53;5093148;28;20370;-60
2023/09/05 07:24:30;;;;;;;6.18;3.90;;;;;;;23.71;57.28;101810.31;5093219;28;20028;-60
2023/09/05 07:26:55;;;;;;;9.30;3.80;;;;;;;23.85;56.82;101808.09;5093161;28;20020;-59
2023/09/05 07:29:23;;;;;;;6.40;3.30;;;;;;;24.08;56.63;101809.25;5093177;28;20131;-59
2023/09/05 07:31:50;;;;;;;5.07;3.42;;;;;;;24.15;55.25;101809.03;5092918;28;20024;-60
2023/09/05 07:34:15;;;;;;;6.00;3.33;;;;;;;24.21;54.70;101808.81;5093099;28;20381;-60
2023/09/05 07:36:41;;;;;;;4.85;3.42;;;;;;;24.35;55.16;101804.81;5092837;28;20024;-60
2023/09/05 07:39:06;;;;;;;6.35;3.47;;;;;;;24.56;54.93;101804.16;5093064;28;20024;-60
2023/09/05 07:41:33;;;;;;;4.97;3.30;;;;;;;24.63;53.71;101802.16;5093111;28;20105;-60
2023/09/05 07:43:59;;;;;;;6.68;3.40;;;;;;;24.85;53.34;101805.03;5092965;28;20032;-60
2023/09/05 07:46:25;;;;;;;7.68;3.30;;;;;;;25.02;53.98;101799.94;5091974;28;20443;-60
2023/09/05 07:48:52;;;;;;;6.97;3.60;;;;;;;25.13;52.50;101788.75;5092914;28;20563;-59
2023/09/05 07:51:17;;;;;;;8.98;3.30;;;;;;;25.27;51.50;101797.28;5092809;28;20063;-60
2023/09/05 07:53:51;;;;;;;5.53;3.20;;;;;;;25.41;51.10;101800.38;5092737;28;20066;-60
2023/09/05 07:56:16;;;;;;;9.63;3.45;;;;;;;25.57;51.50;101800.72;5093129;28;20028;-59
2023/09/05 07:58:41;;;;;;;6.30;3.35;;;;;;;25.68;51.33;101803.03;5092416;28;20130;-59
2023/09/05 08:01:09;;;;;;;4.20;3.08;;;;;;;25.77;50.00;101799.13;5074742;28;20035;-59
2023/09/05 08:03:36;;;;;;;8.48;3.22;;;;;;;25.82;49.93;101805.22;5092771;28;20081;-60
2023/09/05 08:06:03;;;;;;;5.63;3.08;;;;;;;26.07;50.20;101799.78;5092654;28;20039;-59
2023/09/05 08:08:28;;;;;;;5.15;3.00;;;;;;;26.18;50.70;101803.84;5092674;28;20032;-59
2023/09/05 08:10:53;;;;;;;5.95;3.10;;;;;;;26.34;48.21;101809.53;5092778;28;20386;-60
2023/09/05 08:13:19;;;;;;;6.00;3.20;;;;;;;26.40;48.15;101808.41;5074387;28;20068;-59
2023/09/05 08:15:45;;;;;;;9.10;3.35;;;;;;;26.59;48.70;101800.44;5092314;28;20039;-60
2023/09/05 08:18:11;;;;;;;7.65;3.08;;;;;;;26.92;48.47;101804.47;5092718;28;20036;-61
2023/09/05 08:20:39;;;;;;;10.10;3.22;;;;;;;26.94;47.90;101802.56;5092353;28;20035;-60
2023/09/05 08:23:06;;;;;;;5.28;2.90;;;;;;;27.13;48.52;101805.41;5092604;28;20047;-60
2023/09/05 08:25:31;;;;;;;5.05;3.00;;;;;;;27.28;47.17;101805.69;5092611;28;20078;-61
2023/09/05 08:27:57;;;;;;;5.35;3.05;;;;;;;27.10;47.27;101810.06;5092163;28;20373;-69
2023/09/05 08:30:27;;;;;;;5.15;3.20;;;;;;;26.96;46.81;101805.22;5074120;28;20474;-70
2023/09/05 08:33:02;;;;;;;5.05;3.03;;;;;;;26.91;48.53;101810.84;5074197;28;20129;-72
2023/09/05 08:35:28;;;;;;;8.48;3.00;;;;;;;26.99;47.00;101804.22;5073959;28;20027;-72
2023/09/05 08:37:54;;;;;;;8.23;3.08;;;;;;;26.88;45.75;101794.69;5094792;28;20102;-71
2023/09/05 08:40:20;;;;;;;7.90;3.00;;;;;;;27.02;49.06;101798.63;5094618;28;20032;-68
2023/09/05 08:42:53;;;;;;;6.22;3.30;;;;;;;27.14;46.99;101795.44;5092153;28;20388;-68
2023/09/05 08:45:24;;;;;;;4.65;2.95;;;;;;;27.25;46.78;101790.44;5092369;28;20028;-69
2023/09/05 08:47:51;;;;;;;6.60;3.20;;;;;;;27.26;46.94;101792.19;5092084;28;20048;-68
2023/09/05 08:50:17;;;;;;;4.63;2.90;;;;;;;27.18;45.73;101797.94;5074384;28;20036;-69
2023/09/05 08:52:43;;;;;;;4.75;3.00;;;;;;;27.26;46.86;101797.63;5092277;28;20039;-67
2023/09/05 08:55:10;;;;;;;7.93;3.05;;;;;;;27.02;46.22;101798.63;5092343;28;20056;-68
2023/09/05 08:57:40;;;;;;;4.60;2.97;;;;;;;27.03;46.25;101805.84;5092040;28;20097;-67
2023/09/05 09:00:07;;;;;;;7.32;3.20;;;;;;;27.20;46.30;101808.75;5095120;28;20039;-66
2023/09/05 09:02:35;;;;;;;5.07;2.92;;;;;;;27.34;46.47;101802.72;5097582;28;20047;-66
2023/09/05 09:05:01;;;;;;;7.45;2.90;;;;;;;27.54;45.58;101805.44;5085549;28;20035;-66
2023/09/05 09:07:27;;;;;;;4.70;2.78;;;;;;;27.84;45.03;101802.31;5106720;28;20024;-67
2023/09/05 09:09:57;;;;;;;6.45;3.08;;;;;;;28.08;45.34;101806.56;5103837;28;20339;-67
2023/09/05 09:12:30;;;;;;;5.70;2.90;;;;;;;28.31;44.19;101801.84;5094052;28;20039;-67
2023/09/05 09:15:03;;;;;;;7.07;2.90;;;;;;;28.58;44.02;101806.00;5116289;28;20027;-67
2023/09/05 09:17:29;;;;;;;4.70;2.85;;;;;;;28.58;43.22;101810.56;5116205;28;20035;-68
2023/09/05 09:19:55;;;;;;;7.70;3.20;;;;;;;28.84;44.72;101806.53;5098196;28;20028;-69
2023/09/05 09:22:24;;;;;;;5.72;3.00;;;;;;;28.73;44.05;101806.19;5098017;28;20384;-65
2023/09/05 09:24:50;;;;;;;6.65;3.03;;;;;;;28.77;42.49;101813.22;5115794;28;20076;-66
2023/09/05 09:27:22;;;;;;;5.03;2.70;;;;;;;29.00;41.71;101807.56;5115961;28;20027;-66
2023/09/05 09:29:51;;;;;;;;;;;;;;;29.26;44.33;101808.94;5116144;28;20477;-66
2023/09/05 09:32:19;;;;;;;4.85;3.10;;;;;;;29.28;42.28;101817.00;5116009;28;20357;-67
2023/09/05 09:34:45;;;;;;;6.18;2.80;;;;;;;29.48;42.01;101814.13;5115721;28;20508;-67
2023/09/05 09:37:10;;;;;;;6.45;2.95;;;;;;;29.50;40.95;101819.47;5115935;28;20081;-67
2023/09/05 09:39:36;;;;;;;7.10;3.00;;;;;;;29.76;42.10;101826.28;5097458;28;20024;-67
2023/09/05 09:42:01;;;;;;;6.10;2.80;;;;;;;30.00;39.93;101818.59;5097500;28;20024;-67
2023/09/05 09:44:32;;;;;;;7.63;2.80;;;;;;;30.10;41.17;101826.19;5115664;28;20038;-67
2023/09/05 09:47:00;;;;;;;6.78;2.83;;;;;;;30.52;39.61;101826.59;5115407;28;20079;-67
2023/09/05 09:49:28;;;;;;;7.95;3.10;;;;;;;30.49;39.84;101824.03;5115537;28;20064;-67
2023/09/05 09:52:01;;;;;;;5.53;2.70;;;;;;;30.85;39.16;101818.34;5115780;28;20102;-67
2023/09/05 09:54:39;;;;;;;5.90;3.00;;;;;;;30.99;38.76;101817.50;5115657;28;20019;-66
2023/09/05 09:57:05;;;;;;;6.18;2.92;;;;;;;30.88;39.22;101823.63;5115636;28;20032;-67
2023/09/05 09:59:36;;;;;;;5.80;2.88;;;;;;;30.89;39.39;101822.66;5115189;28;20101;-67
2023/09/05 10:02:09;;;;;;;7.18;3.20;;;;;;;31.03;39.01;101817.25;5115322;28;20480;-66
2023/09/05 10:04:37;;;;;;;4.90;2.92;;;;;;;30.84;38.36;101809.28;5115587;28;20027;-67
2023/09/05 10:07:06;;;;;;;5.88;2.80;;;;;;;31.20;37.23;101808.03;5115211;28;20452;-67
2023/09/05 10:09:40;;;;;;;5.43;2.90;;;;;;;31.23;37.95;101798.78;5114912;28;20034;-67
2023/09/05 10:12:07;;;;;;;4.30;2.80;;;;;;;31.33;37.95;101803.59;5115307;28;20026;-66
2023/09/05 10:14:35;;;;;;;5.72;2.85;;;;;;;31.12;37.64;101808.50;5097035;28;20036;-67
2023/09/05 10:17:02;;;;;;;10.77;3.00;;;;;;;31.20;37.55;101805.31;5096674;28;20035;-67
2023/09/05 10:19:29;;;;;;;6.32;2.90;;;;;;;31.09;37.23;101796.88;5115421;28;20108;-67
2023/09/05 10:21:57;;;;;;;6.82;2.70;;;;;;;31.26;38.84;101794.00;5115023;28;20088;-67
2023/09/05 10:24:29;;;;;;;6.28;2.80;;;;;;;31.55;38.75;101786.75;5115029;28;20370;-67
2023/09/05 10:26:56;;;;;;;5.03;2.83;;;;;;;31.63;36.45;101792.63;5115013;28;20027;-67
2023/09/05 10:29:34;;;;;;;8.32;3.10;;;;;;;32.03;36.66;101794.69;5096716;28;20106;-67
2023/09/05 10:32:01;;;;;;;5.07;3.05;;;;;;;32.08;36.08;101795.31;5114980;28;20038;-67
2023/09/05 10:35:08;;;;;;;5.75;2.78;;;;;;;32.30;36.41;101795.66;5114934;28;20024;-67
2023/09/05 10:37:34;;;;;;;9.77;2.90;;;;;;;32.43;36.32;101794.88;5115138;28;20178;-67
2023/09/05 10:40:13;;;;;;;5.90;2.80;;;;;;;32.44;37.24;101791.16;5114758;28;20102;-67
2023/09/05 10:42:49;;;;;;;5.93;2.70;;;;;;;32.49;35.23;101787.13;5114735;28;20469;-68
2023/09/05 10:45:23;;;;;;;7.35;2.80;;;;;;;32.51;35.65;101785.19;5114462;28;20050;-67
2023/09/05 10:47:56;;;;;;;9.07;2.70;;;;;;;32.54;35.68;101786.81;5114226;28;20058;-67
2023/09/05 10:50:22;;;;;;;6.80;2.80;;;;;;;32.46;36.37;101786.44;5114546;28;20031;-67
2023/09/05 10:53:10;;;;;;;6.93;2.70;;;;;;;32.65;35.55;101785.13;5114479;28;20020;-67
2023/09/05 10:55:50;;;;;;;3.53;2.58;;;;;;;32.52;35.03;101777.84;5114312;28;20074;-67
2023/09/05 10:59:00;;;;;;;4.78;2.60;;;;;;;32.46;36.41;101778.25;5114211;28;20028;-67
2023/09/05 11:01:32;;;;;;;5.90;2.60;;;;;;;31.80;36.40;101774.28;5110122;28;20039;-67
2023/09/05 11:04:07;;;;;;;5.45;2.75;;;;;;;31.94;36.33;101763.38;5114417;28;20027;-67
2023/09/05 11:06:33;;;;;;;5.07;2.60;;;;;;;32.05;36.32;101766.28;5114190;28;20042;-67
2023/09/05 11:09:06;;;;;;;9.38;2.92;;;;;;;32.05;37.85;101770.88;5114449;28;20020;-67
2023/09/05 11:11:36;;;;;;;3.90;2.70;;;;;;;32.04;35.22;101785.53;5114230;28;20110;-67
2023/09/05 11:14:03;;;;;;;8.57;2.80;;;;;;;32.03;35.29;101765.50;5114024;28;20477;-67
2023/09/05 11:16:28;;;;;;;6.07;3.03;;;;;;;32.23;35.72;101775.16;5114087;28;20030;-67
2023/09/05 11:18:56;;;;;;;5.93;3.00;;;;;;;32.28;35.48;101766.63;5114005;28;20420;-65
2023/09/05 11:21:23;;;;;;;7.72;2.78;;;;;;;32.89;35.70;101771.63;5113364;28;20082;-65
2023/09/05 11:23:53;;;;;;;4.43;2.55;;;;;;;33.15;35.99;101767.13;5095898;28;20031;-66